sensor_id;sensor_type;location;lat;lon;timestamp;pressure;altitude;pressure_sealevel;temperature
72278;BMP280;61204;49.980;8.358;2022-08-18T00:02:27;100198.81;;;22.11
72278;BMP280;61204;49.980;8.358;2022-08-18T00:04:55;100200.94;;;22.14
72278;BMP280;61204;49.980;8.358;2022-08-18T00:07:28;100196.84;;;22.22
72278;BMP280;61204;49.980;8.358;2022-08-18T00:09:58;100192.75;;;22.27
72278;BMP280;61204;49.980;8.358;2022-08-18T00:12:39;100189.28;;;22.30
72278;BMP280;61204;49.980;8.358;2022-08-18T00:15:10;100192.78;;;22.33
72278;BMP280;61204;49.980;8.358;2022-08-18T00:17:39;100195.66;;;22.35
72278;BMP280;61204;49.980;8.358;2022-08-18T00:20:12;100200.53;;;22.34
72278;BMP280;61204;49.980;8.358;2022-08-18T00:22:42;100199.88;;;22.38
72278;BMP280;61204;49.980;8.358;2022-08-18T00:25:10;100204.69;;;22.33
72278;BMP280;61204;49.980;8.358;2022-08-18T00:27:40;100200.47;;;22.32
72278;BMP280;61204;49.980;8.358;2022-08-18T00:30:09;100203.97;;;22.31
72278;BMP280;61204;49.980;8.358;2022-08-18T00:32:47;100209.50;;;22.29
72278;BMP280;61204;49.980;8.358;2022-08-18T00:35:25;100221.34;;;22.27
72278;BMP280;61204;49.980;8.358;2022-08-18T00:38:02;100212.22;;;22.25
72278;BMP280;61204;49.980;8.358;2022-08-18T00:40:40;100221.31;;;22.23
72278;BMP280;61204;49.980;8.358;2022-08-18T00:43:20;100216.34;;;22.19
72278;BMP280;61204;49.980;8.358;2022-08-18T00:46:26;100221.19;;;22.15
72278;BMP280;61204;49.980;8.358;2022-08-18T00:48:57;100221.88;;;22.15
72278;BMP280;61204;49.980;8.358;2022-08-18T00:51:46;100227.44;;;22.13
72278;BMP280;61204;49.980;8.358;2022-08-18T00:54:22;100230.19;;;22.11
72278;BMP280;61204;49.980;8.358;2022-08-18T00:56:56;100223.94;;;22.13
72278;BMP280;61204;49.980;8.358;2022-08-18T00:59:35;100232.97;;;22.11
72278;BMP280;61204;49.980;8.358;2022-08-18T01:02:33;100235.09;;;22.13
72278;BMP280;61204;49.980;8.358;2022-08-18T01:05:18;100230.91;;;22.12
72278;BMP280;61204;49.980;8.358;2022-08-18T01:07:54;100235.03;;;22.09
72278;BMP280;61204;49.980;8.358;2022-08-18T01:10:23;100233.59;;;22.06
72278;BMP280;61204;49.980;8.358;2022-08-18T01:12:56;100244.78;;;22.08
72278;BMP280;61204;49.980;8.358;2022-08-18T01:15:24;100237.06;;;22.04
72278;BMP280;61204;49.980;8.358;2022-08-18T01:17:52;100231.44;;;22.02
72278;BMP280;61204;49.980;8.358;2022-08-18T01:20:43;100240.50;;;22.01
72278;BMP280;61204;49.980;8.358;2022-08-18T01:23:40;100237.69;;;22.01
72278;BMP280;61204;49.980;8.358;2022-08-18T01:26:06;100236.28;;;22.00
72278;BMP280;61204;49.980;8.358;2022-08-18T01:28:36;100231.41;;;22.00
72278;BMP280;61204;49.980;8.358;2022-08-18T01:31:09;100234.22;;;22.00
72278;BMP280;61204;49.980;8.358;2022-08-18T01:33:41;100233.56;;;22.04
72278;BMP280;61204;49.980;8.358;2022-08-18T01:36:15;100225.19;;;22.04
72278;BMP280;61204;49.980;8.358;2022-08-18T01:38:49;100229.38;;;22.03
72278;BMP280;61204;49.980;8.358;2022-08-18T01:41:20;100224.50;;;22.03
72278;BMP280;61204;49.980;8.358;2022-08-18T01:43:48;100220.97;;;22.01
72278;BMP280;61204;49.980;8.358;2022-08-18T01:46:18;100217.53;;;22.04
72278;BMP280;61204;49.980;8.358;2022-08-18T01:48:48;100216.19;;;22.07
72278;BMP280;61204;49.980;8.358;2022-08-18T01:51:16;100222.47;;;22.08
72278;BMP280;61204;49.980;8.358;2022-08-18T01:53:44;100223.88;;;22.07
72278;BMP280;61204;49.980;8.358;2022-08-18T01:56:11;100225.25;;;22.08
72278;BMP280;61204;49.980;8.358;2022-08-18T01:58:42;100232.94;;;22.09
72278;BMP280;61204;49.980;8.358;2022-08-18T02:01:10;100220.38;;;22.08
72278;BMP280;61204;49.980;8.358;2022-08-18T02:03:42;100226.66;;;22.07
72278;BMP280;61204;49.980;8.358;2022-08-18T02:06:17;100222.47;;;22.08
72278;BMP280;61204;49.980;8.358;2022-08-18T02:08:46;100226.28;;;21.84
72278;BMP280;61204;49.980;8.358;2022-08-18T02:11:13;100237.16;;;21.68
72278;BMP280;61204;49.980;8.358;2022-08-18T02:13:40;100235.50;;;21.53
72278;BMP280;61204;49.980;8.358;2022-08-18T02:16:06;100233.91;;;21.42
72278;BMP280;61204;49.980;8.358;2022-08-18T02:18:34;100232.38;;;21.35
72278;BMP280;61204;49.980;8.358;2022-08-18T02:21:09;100234.16;;;21.18
72278;BMP280;61204;49.980;8.358;2022-08-18T02:23:43;100245.69;;;21.02
72278;BMP280;61204;49.980;8.358;2022-08-18T02:26:15;100232.38;;;20.99
72278;BMP280;61204;49.980;8.358;2022-08-18T02:28:43;100237.09;;;20.90
72278;BMP280;61204;49.980;8.358;2022-08-18T02:31:16;100247.22;;;20.75
72278;BMP280;61204;49.980;8.358;2022-08-18T02:33:46;100244.22;;;20.65
72278;BMP280;61204;49.980;8.358;2022-08-18T02:36:12;100249.63;;;20.59
72278;BMP280;61204;49.980;8.358;2022-08-18T02:38:40;100249.50;;;20.53
72278;BMP280;61204;49.980;8.358;2022-08-18T02:41:08;100249.47;;;20.51
72278;BMP280;61204;49.980;8.358;2022-08-18T02:43:37;100255.69;;;20.49
72278;BMP280;61204;49.980;8.358;2022-08-18T02:46:06;100255.69;;;20.49
72278;BMP280;61204;49.980;8.358;2022-08-18T02:48:32;100254.22;;;20.46
72278;BMP280;61204;49.980;8.358;2022-08-18T02:53:32;100250.66;;;20.42
72278;BMP280;61204;49.980;8.358;2022-08-18T02:56:08;100249.91;;;20.39
72278;BMP280;61204;49.980;8.358;2022-08-18T02:59:00;100244.31;;;20.39
72278;BMP280;61204;49.980;8.358;2022-08-18T03:01:34;100240.88;;;20.41
72278;BMP280;61204;49.980;8.358;2022-08-18T03:04:07;100238.84;;;20.43
72278;BMP280;61204;49.980;8.358;2022-08-18T03:06:38;100243.03;;;20.44
72278;BMP280;61204;49.980;8.358;2022-08-18T03:09:05;100244.31;;;20.39
72278;BMP280;61204;49.980;8.358;2022-08-18T03:11:35;100240.75;;;20.37
72278;BMP280;61204;49.980;8.358;2022-08-18T03:14:02;100248.38;;;20.34
72278;BMP280;61204;49.980;8.358;2022-08-18T03:16:30;100253.97;;;20.34
72278;BMP280;61204;49.980;8.358;2022-08-18T03:18:57;100251.81;;;20.33
72278;BMP280;61204;49.980;8.358;2022-08-18T03:21:30;100242.66;;;20.28
72278;BMP280;61204;49.980;8.358;2022-08-18T03:24:00;100246.75;;;20.25
72278;BMP280;61204;49.980;8.358;2022-08-18T03:26:30;100249.44;;;20.21
72278;BMP280;61204;49.980;8.358;2022-08-18T03:29:00;100241.72;;;20.17
72278;BMP280;61204;49.980;8.358;2022-08-18T03:31:29;100240.22;;;20.14
72278;BMP280;61204;49.980;8.358;2022-08-18T03:34:03;100239.50;;;20.12
72278;BMP280;61204;49.980;8.358;2022-08-18T03:36:34;100240.81;;;20.09
72278;BMP280;61204;49.980;8.358;2022-08-18T03:39:05;100240.03;;;20.06
72278;BMP280;61204;49.980;8.358;2022-08-18T03:41:39;100248.38;;;20.06
72278;BMP280;61204;49.980;8.358;2022-08-18T03:44:11;100252.66;;;20.09
72278;BMP280;61204;49.980;8.358;2022-08-18T03:46:40;100246.94;;;20.03
72278;BMP280;61204;49.980;8.358;2022-08-18T03:49:08;100246.78;;;19.97
72278;BMP280;61204;49.980;8.358;2022-08-18T03:51:34;100249.56;;;19.97
72278;BMP280;61204;49.980;8.358;2022-08-18T03:54:03;100253.06;;;19.97
72278;BMP280;61204;49.980;8.358;2022-08-18T03:56:33;100249.56;;;19.97
72278;BMP280;61204;49.980;8.358;2022-08-18T03:59:15;100244.69;;;19.95
72278;BMP280;61204;49.980;8.358;2022-08-18T04:01:45;100243.25;;;19.94
72278;BMP280;61204;49.980;8.358;2022-08-18T04:04:18;100241.25;;;19.99
72278;BMP280;61204;49.980;8.358;2022-08-18T04:06:50;100241.22;;;19.97
72278;BMP280;61204;49.980;8.358;2022-08-18T04:09:23;100245.31;;;19.94
72278;BMP280;61204;49.980;8.358;2022-08-18T04:11:54;100247.38;;;19.93
72278;BMP280;61204;49.980;8.358;2022-08-18T04:14:23;100243.44;;;20.03
72278;BMP280;61204;49.980;8.358;2022-08-18T04:16:56;100243.53;;;20.07
72278;BMP280;61204;49.980;8.358;2022-08-18T04:19:30;100238.03;;;20.09
72278;BMP280;61204;49.980;8.358;2022-08-18T04:21:59;100235.19;;;20.07
72278;BMP280;61204;49.980;8.358;2022-08-18T04:24:32;100240.75;;;20.07
72278;BMP280;61204;49.980;8.358;2022-08-18T04:27:00;100238.59;;;20.03
72278;BMP280;61204;49.980;8.358;2022-08-18T04:29:29;100236.56;;;20.06
72278;BMP280;61204;49.980;8.358;2022-08-18T04:31:55;100234.44;;;20.04
72278;BMP280;61204;49.980;8.358;2022-08-18T04:34:27;100230.97;;;20.04
72278;BMP280;61204;49.980;8.358;2022-08-18T04:36:53;100236.53;;;20.04
72278;BMP280;61204;49.980;8.358;2022-08-18T04:39:19;100242.13;;;20.06
72278;BMP280;61204;49.980;8.358;2022-08-18T04:41:45;100235.97;;;20.09
72278;BMP280;61204;49.980;8.358;2022-08-18T04:44:13;100231.06;;;20.08
72278;BMP280;61204;49.980;8.358;2022-08-18T04:46:44;100239.47;;;20.10
72278;BMP280;61204;49.980;8.358;2022-08-18T04:49:20;100236.72;;;20.12
72278;BMP280;61204;49.980;8.358;2022-08-18T04:51:50;100240.22;;;20.12
72278;BMP280;61204;49.980;8.358;2022-08-18T04:54:38;100238.66;;;20.05
72278;BMP280;61204;49.980;8.358;2022-08-18T04:57:10;100248.28;;;20.00
72278;BMP280;61204;49.980;8.358;2022-08-18T04:59:46;100242.72;;;20.00
72278;BMP280;61204;49.980;8.358;2022-08-18T05:02:15;100251.06;;;20.02
72278;BMP280;61204;49.980;8.358;2022-08-18T05:04:44;100260.13;;;20.03
72278;BMP280;61204;49.980;8.358;2022-08-18T05:07:12;100262.88;;;20.01
72278;BMP280;61204;49.980;8.358;2022-08-18T05:09:43;100254.53;;;20.01
72278;BMP280;61204;49.980;8.358;2022-08-18T05:12:10;100266.38;;;20.01
72278;BMP280;61204;49.980;8.358;2022-08-18T05:14:40;100267.78;;;20.02
72278;BMP280;61204;49.980;8.358;2022-08-18T05:17:13;100275.50;;;20.04
72278;BMP280;61204;49.980;8.358;2022-08-18T05:19:41;100267.13;;;20.04
72278;BMP280;61204;49.980;8.358;2022-08-18T05:22:09;100274.03;;;20.03
72278;BMP280;61204;49.980;8.358;2022-08-18T05:24:35;100267.13;;;20.04
72278;BMP280;61204;49.980;8.358;2022-08-18T05:27:02;100274.03;;;20.01
72278;BMP280;61204;49.980;8.358;2022-08-18T05:29:29;100275.41;;;20.02
72278;BMP280;61204;49.980;8.358;2022-08-18T05:32:01;100278.88;;;20.00
72278;BMP280;61204;49.980;8.358;2022-08-18T05:34:33;100275.41;;;20.02
72278;BMP280;61204;49.980;8.358;2022-08-18T05:40:25;100276.81;;;20.01
72278;BMP280;61204;49.980;8.358;2022-08-18T05:42:55;100282.38;;;20.01
72278;BMP280;61204;49.980;8.358;2022-08-18T05:45:24;100289.91;;;19.96
72278;BMP280;61204;49.980;8.358;2022-08-18T05:47:56;100291.19;;;19.93
72278;BMP280;61204;49.980;8.358;2022-08-18T05:50:25;100291.84;;;19.91
72278;BMP280;61204;49.980;8.358;2022-08-18T05:53:00;100289.69;;;19.88
72278;BMP280;61204;49.980;8.358;2022-08-18T05:55:39;100282.59;;;19.83
72278;BMP280;61204;49.980;8.358;2022-08-18T05:58:50;100281.09;;;19.80
72278;BMP280;61204;49.980;8.358;2022-08-18T06:01:22;100277.59;;;19.77
72278;BMP280;61204;49.980;8.358;2022-08-18T06:04:08;100276.84;;;19.75
72278;BMP280;61204;49.980;8.358;2022-08-18T06:06:55;100277.41;;;19.71
72278;BMP280;61204;49.980;8.358;2022-08-18T06:09:30;100271.03;;;19.66
72278;BMP280;61204;49.980;8.358;2022-08-18T06:12:12;100267.88;;;19.78
72278;BMP280;61204;49.980;8.358;2022-08-18T06:14:50;100269.94;;;19.78
72278;BMP280;61204;49.980;8.358;2022-08-18T06:21:09;100263.72;;;19.79
72278;BMP280;61204;49.980;8.358;2022-08-18T06:24:30;100253.75;;;19.70
72278;BMP280;61204;49.980;8.358;2022-08-18T06:30:22;100246.59;;;19.63
72278;BMP280;61204;49.980;8.358;2022-08-18T06:33:46;100246.66;;;19.65
72278;BMP280;61204;49.980;8.358;2022-08-18T06:36:36;100258.44;;;19.63
72278;BMP280;61204;49.980;8.358;2022-08-18T06:39:33;100261.22;;;19.63
72278;BMP280;61204;49.980;8.358;2022-08-18T06:42:11;100257.78;;;19.65
72278;BMP280;61204;49.980;8.358;2022-08-18T06:44:41;100254.28;;;19.64
72278;BMP280;61204;49.980;8.358;2022-08-18T06:50:40;100262.22;;;19.74
72278;BMP280;61204;49.980;8.358;2022-08-18T06:59:41;100266.97;;;19.97
72278;BMP280;61204;49.980;8.358;2022-08-18T07:05:37;100273.53;;;20.10
72278;BMP280;61204;49.980;8.358;2022-08-18T07:08:39;100277.19;;;20.17
72278;BMP280;61204;49.980;8.358;2022-08-18T07:13:43;100290.69;;;20.28
72278;BMP280;61204;49.980;8.358;2022-08-18T07:16:34;100290.84;;;20.35
72278;BMP280;61204;49.980;8.358;2022-08-18T07:19:07;100295.19;;;20.42
72278;BMP280;61204;49.980;8.358;2022-08-18T07:21:42;100297.41;;;20.47
72278;BMP280;61204;49.980;8.358;2022-08-18T07:24:27;100307.31;;;20.54
72278;BMP280;61204;49.980;8.358;2022-08-18T07:27:17;100305.34;;;20.59
72278;BMP280;61204;49.980;8.358;2022-08-18T07:30:07;100309.50;;;20.58
72278;BMP280;61204;49.980;8.358;2022-08-18T07:33:21;100304.69;;;20.60
72278;BMP280;61204;49.980;8.358;2022-08-18T07:35:59;100311.06;;;20.65
72278;BMP280;61204;49.980;8.358;2022-08-18T07:38:45;100313.94;;;20.69
72278;BMP280;61204;49.980;8.358;2022-08-18T07:41:26;100321.53;;;20.67
72278;BMP280;61204;49.980;8.358;2022-08-18T07:44:12;100322.16;;;20.63
72278;BMP280;61204;49.980;8.358;2022-08-18T07:46:55;100323.59;;;20.66
72278;BMP280;61204;49.980;8.358;2022-08-18T07:49:43;100338.84;;;20.63
72278;BMP280;61204;49.980;8.358;2022-08-18T07:52:20;100336.03;;;20.61
72278;BMP280;61204;49.980;8.358;2022-08-18T07:55:24;100339.69;;;20.68
72278;BMP280;61204;49.980;8.358;2022-08-18T07:58:27;100341.84;;;20.71
72278;BMP280;61204;49.980;8.358;2022-08-18T08:04:27;100358.00;;;20.77
72278;BMP280;61204;49.980;8.358;2022-08-18T08:07:30;100355.34;;;20.83
72278;BMP280;61204;49.980;8.358;2022-08-18T08:10:22;100351.94;;;20.86
72278;BMP280;61204;49.980;8.358;2022-08-18T08:16:02;100364.75;;;21.00
72278;BMP280;61204;49.980;8.358;2022-08-18T08:18:49;100354.41;;;21.04
72278;BMP280;61204;49.980;8.358;2022-08-18T08:22:14;100369.31;;;21.15
72278;BMP280;61204;49.980;8.358;2022-08-18T08:28:41;100361.97;;;21.32
72278;BMP280;61204;49.980;8.358;2022-08-18T08:31:36;100362.84;;;21.40
72278;BMP280;61204;49.980;8.358;2022-08-18T08:34:44;100370.00;;;21.47
72278;BMP280;61204;49.980;8.358;2022-08-18T08:37:37;100367.22;;;21.49
72278;BMP280;61204;49.980;8.358;2022-08-18T08:43:01;100359.16;;;21.64
72278;BMP280;61204;49.980;8.358;2022-08-18T08:45:59;100362.28;;;21.82
72278;BMP280;61204;49.980;8.358;2022-08-18T08:49:17;100350.81;;;22.04
72278;BMP280;61204;49.980;8.358;2022-08-18T08:52:00;100360.78;;;22.15
72278;BMP280;61204;49.980;8.358;2022-08-18T08:54:47;100367.72;;;22.14
72278;BMP280;61204;49.980;8.358;2022-08-18T08:57:25;100366.75;;;22.39
72278;BMP280;61204;49.980;8.358;2022-08-18T08:59:58;100365.06;;;22.66
72278;BMP280;61204;49.980;8.358;2022-08-18T09:02:32;100362.34;;;22.68
72278;BMP280;61204;49.980;8.358;2022-08-18T09:05:20;100361.47;;;23.06
72278;BMP280;61204;49.980;8.358;2022-08-18T09:08:05;100361.19;;;23.40
72278;BMP280;61204;49.980;8.358;2022-08-18T09:20:47;100364.38;;;23.78
72278;BMP280;61204;49.980;8.358;2022-08-18T09:23:30;100356.88;;;23.95
72278;BMP280;61204;49.980;8.358;2022-08-18T09:35:24;100359.13;;;24.15
72278;BMP280;61204;49.980;8.358;2022-08-18T09:38:21;100361.19;;;24.12
72278;BMP280;61204;49.980;8.358;2022-08-18T09:41:19;100371.75;;;24.18
72278;BMP280;61204;49.980;8.358;2022-08-18T09:44:08;100373.16;;;24.17
72278;BMP280;61204;49.980;8.358;2022-08-18T09:52:00;100365.50;;;24.26
72278;BMP280;61204;49.980;8.358;2022-08-18T09:57:40;100367.69;;;24.33
72278;BMP280;61204;49.980;8.358;2022-08-18T10:13:49;100368.19;;;24.11
72278;BMP280;61204;49.980;8.358;2022-08-18T10:16:57;100373.84;;;24.18
72278;BMP280;61204;49.980;8.358;2022-08-18T10:20:15;100377.38;;;24.22
72278;BMP280;61204;49.980;8.358;2022-08-18T10:23:05;100380.91;;;24.29
72278;BMP280;61204;49.980;8.358;2022-08-18T10:25:39;100375.28;;;24.23
72278;BMP280;61204;49.980;8.358;2022-08-18T10:28:51;100372.50;;;24.23
72278;BMP280;61204;49.980;8.358;2022-08-18T10:31:31;100366.84;;;24.17
72278;BMP280;61204;49.980;8.358;2022-08-18T10:34:47;100371.09;;;24.24
72278;BMP280;61204;49.980;8.358;2022-08-18T10:42:43;100360.75;;;24.44
72278;BMP280;61204;49.980;8.358;2022-08-18T10:45:33;100362.25;;;24.62
72278;BMP280;61204;49.980;8.358;2022-08-18T10:48:16;100356.03;;;24.77
72278;BMP280;61204;49.980;8.358;2022-08-18T10:56:46;100356.16;;;24.98
72278;BMP280;61204;49.980;8.358;2022-08-18T10:59:45;100340.13;;;25.23
72278;BMP280;61204;49.980;8.358;2022-08-18T11:03:07;100349.97;;;25.44
72278;BMP280;61204;49.980;8.358;2022-08-18T11:05:45;100362.63;;;25.51
72278;BMP280;61204;49.980;8.358;2022-08-18T11:08:19;100366.16;;;25.60
72278;BMP280;61204;49.980;8.358;2022-08-18T11:10:48;100357.09;;;25.92
72278;BMP280;61204;49.980;8.358;2022-08-18T11:19:13;100350.03;;;26.25
72278;BMP280;61204;49.980;8.358;2022-08-18T11:21:48;100350.69;;;26.50
72278;BMP280;61204;49.980;8.358;2022-08-18T11:24:29;100347.13;;;26.68
72278;BMP280;61204;49.980;8.358;2022-08-18T11:27:16;100347.72;;;27.01
72278;BMP280;61204;49.980;8.358;2022-08-18T11:29:49;100323.59;;;27.32
72278;BMP280;61204;49.980;8.358;2022-08-18T11:32:26;100295.69;;;27.92
72278;BMP280;61204;49.980;8.358;2022-08-18T11:35:06;100268.72;;;29.17
72278;BMP280;61204;49.980;8.358;2022-08-18T11:38:01;100255.47;;;30.25
72278;BMP280;61204;49.980;8.358;2022-08-18T11:40:41;100257.16;;;30.45
72278;BMP280;61204;49.980;8.358;2022-08-18T11:43:24;100255.69;;;30.79
72278;BMP280;61204;49.980;8.358;2022-08-18T11:45:58;100249.28;;;31.65
72278;BMP280;61204;49.980;8.358;2022-08-18T11:53:53;100274.16;;;32.82
72278;BMP280;61204;49.980;8.358;2022-08-18T11:59:06;100273.66;;;33.40
72278;BMP280;61204;49.980;8.358;2022-08-18T12:01:55;100275.53;;;32.38
72278;BMP280;61204;49.980;8.358;2022-08-18T12:04:40;100269.66;;;32.46
72278;BMP280;61204;49.980;8.358;2022-08-18T12:07:16;100266.03;;;33.34
72278;BMP280;61204;49.980;8.358;2022-08-18T12:12:49;100265.84;;;33.59
72278;BMP280;61204;49.980;8.358;2022-08-18T12:17:47;100248.56;;;34.76
72278;BMP280;61204;49.980;8.358;2022-08-18T12:20:14;100246.06;;;35.01
72278;BMP280;61204;49.980;8.358;2022-08-18T12:22:43;100250.81;;;34.90
72278;BMP280;61204;49.980;8.358;2022-08-18T12:25:13;100254.75;;;34.64
72278;BMP280;61204;49.980;8.358;2022-08-18T12:27:42;100245.94;;;35.20
72278;BMP280;61204;49.980;8.358;2022-08-18T12:30:09;100233.78;;;35.38
72278;BMP280;61204;49.980;8.358;2022-08-18T12:32:37;100241.16;;;34.83
72278;BMP280;61204;49.980;8.358;2022-08-18T12:35:06;100236.56;;;34.38
72278;BMP280;61204;49.980;8.358;2022-08-18T12:37:36;100241.84;;;34.48
72278;BMP280;61204;49.980;8.358;2022-08-18T12:40:07;100235.09;;;35.24
72278;BMP280;61204;49.980;8.358;2022-08-18T12:42:35;100229.91;;;35.12
72278;BMP280;61204;49.980;8.358;2022-08-18T12:45:02;100235.47;;;35.16
72278;BMP280;61204;49.980;8.358;2022-08-18T12:47:28;100228.72;;;34.90
72278;BMP280;61204;49.980;8.358;2022-08-18T12:49:54;100234.66;;;34.68
72278;BMP280;61204;49.980;8.358;2022-08-18T12:52:21;100228.63;;;34.76
72278;BMP280;61204;49.980;8.358;2022-08-18T12:54:47;100226.25;;;33.74
72278;BMP280;61204;49.980;8.358;2022-08-18T12:57:24;100233.41;;;31.74
72278;BMP280;61204;49.980;8.358;2022-08-18T12:59:52;100226.81;;;32.31
72278;BMP280;61204;49.980;8.358;2022-08-18T13:02:19;100225.28;;;32.57
72278;BMP280;61204;49.980;8.358;2022-08-18T13:04:46;100227.94;;;32.40
72278;BMP280;61204;49.980;8.358;2022-08-18T13:07:12;100226.41;;;33.49
72278;BMP280;61204;49.980;8.358;2022-08-18T13:09:40;100231.66;;;33.01
72278;BMP280;61204;49.980;8.358;2022-08-18T13:12:09;100225.97;;;32.12
72278;BMP280;61204;49.980;8.358;2022-08-18T13:14:38;100233.06;;;31.61
72278;BMP280;61204;49.980;8.358;2022-08-18T13:17:04;100225.91;;;32.14
72278;BMP280;61204;49.980;8.358;2022-08-18T13:19:30;100225.47;;;32.05
72278;BMP280;61204;49.980;8.358;2022-08-18T13:21:57;100210.53;;;32.30
72278;BMP280;61204;49.980;8.358;2022-08-18T13:24:22;100212.25;;;33.28
72278;BMP280;61204;49.980;8.358;2022-08-18T13:26:48;100201.00;;;33.45
72278;BMP280;61204;49.980;8.358;2022-08-18T13:29:16;100201.50;;;33.31
72278;BMP280;61204;49.980;8.358;2022-08-18T13:31:44;100198.06;;;33.08
72278;BMP280;61204;49.980;8.358;2022-08-18T13:34:10;100206.13;;;33.20
72278;BMP280;61204;49.980;8.358;2022-08-18T13:36:39;100193.47;;;33.38
72278;BMP280;61204;49.980;8.358;2022-08-18T13:39:19;100203.06;;;34.22
72278;BMP280;61204;49.980;8.358;2022-08-18T13:41:51;100202.06;;;34.29
72278;BMP280;61204;49.980;8.358;2022-08-18T13:44:19;100196.13;;;33.81
72278;BMP280;61204;49.980;8.358;2022-08-18T13:46:51;100194.66;;;34.01
72278;BMP280;61204;49.980;8.358;2022-08-18T13:49:21;100190.91;;;33.69
72278;BMP280;61204;49.980;8.358;2022-08-18T13:51:50;100190.00;;;33.35
72278;BMP280;61204;49.980;8.358;2022-08-18T13:54:29;100189.34;;;33.53
72278;BMP280;61204;49.980;8.358;2022-08-18T13:56:59;100180.63;;;33.38
72278;BMP280;61204;49.980;8.358;2022-08-18T13:59:26;100179.09;;;32.38
72278;BMP280;61204;49.980;8.358;2022-08-18T14:01:56;100181.72;;;32.87
72278;BMP280;61204;49.980;8.358;2022-08-18T14:04:25;100172.84;;;33.18
72278;BMP280;61204;49.980;8.358;2022-08-18T14:06:53;100173.66;;;32.30
72278;BMP280;61204;49.980;8.358;2022-08-18T14:09:23;100169.19;;;32.14
72278;BMP280;61204;49.980;8.358;2022-08-18T14:11:49;100170.00;;;32.56
72278;BMP280;61204;49.980;8.358;2022-08-18T14:14:15;100165.69;;;31.89
72278;BMP280;61204;49.980;8.358;2022-08-18T14:16:42;100165.94;;;32.92
72278;BMP280;61204;49.980;8.358;2022-08-18T14:19:08;100168.31;;;32.42
72278;BMP280;61204;49.980;8.358;2022-08-18T14:21:53;100169.50;;;32.27
72278;BMP280;61204;49.980;8.358;2022-08-18T14:24:40;100160.00;;;33.59
72278;BMP280;61204;49.980;8.358;2022-08-18T14:27:33;100153.69;;;33.94
72278;BMP280;61204;49.980;8.358;2022-08-18T14:30:07;100151.50;;;34.13
72278;BMP280;61204;49.980;8.358;2022-08-18T14:32:36;100152.03;;;33.24
72278;BMP280;61204;49.980;8.358;2022-08-18T14:35:07;100152.25;;;33.18
72278;BMP280;61204;49.980;8.358;2022-08-18T14:37:36;100143.69;;;34.30
72278;BMP280;61204;49.980;8.358;2022-08-18T14:40:03;100140.63;;;34.53
72278;BMP280;61204;49.980;8.358;2022-08-18T14:42:31;100131.56;;;33.96
72278;BMP280;61204;49.980;8.358;2022-08-18T14:44:58;100131.19;;;33.69
72278;BMP280;61204;49.980;8.358;2022-08-18T14:47:24;100126.41;;;32.66
72278;BMP280;61204;49.980;8.358;2022-08-18T14:49:54;100129.41;;;33.41
72278;BMP280;61204;49.980;8.358;2022-08-18T14:52:22;100133.88;;;34.27
72278;BMP280;61204;49.980;8.358;2022-08-18T14:54:50;100136.28;;;35.04
72278;BMP280;61204;49.980;8.358;2022-08-18T14:57:16;100140.28;;;34.95
72278;BMP280;61204;49.980;8.358;2022-08-18T14:59:42;100137.50;;;34.76
72278;BMP280;61204;49.980;8.358;2022-08-18T15:02:10;100137.09;;;34.69
72278;BMP280;61204;49.980;8.358;2022-08-18T15:04:37;100138.75;;;34.12
72278;BMP280;61204;49.980;8.358;2022-08-18T15:07:04;100135.63;;;34.18
72278;BMP280;61204;49.980;8.358;2022-08-18T15:09:30;100137.25;;;33.59
72278;BMP280;61204;49.980;8.358;2022-08-18T15:11:57;100134.81;;;33.67
72278;BMP280;61204;49.980;8.358;2022-08-18T15:14:25;100140.16;;;33.38
72278;BMP280;61204;49.980;8.358;2022-08-18T15:16:55;100141.09;;;33.32
72278;BMP280;61204;49.980;8.358;2022-08-18T15:19:23;100129.72;;;32.93
72278;BMP280;61204;49.980;8.358;2022-08-18T15:21:51;100140.16;;;32.57
72278;BMP280;61204;49.980;8.358;2022-08-18T15:24:39;100138.00;;;32.99
72278;BMP280;61204;49.980;8.358;2022-08-18T15:27:33;100146.94;;;33.08
72278;BMP280;61204;49.980;8.358;2022-08-18T15:30:09;100141.06;;;33.14
72278;BMP280;61204;49.980;8.358;2022-08-18T15:32:41;100143.56;;;32.82
72278;BMP280;61204;49.980;8.358;2022-08-18T15:35:11;100149.94;;;32.83
72278;BMP280;61204;49.980;8.358;2022-08-18T15:37:44;100144.91;;;32.65
72278;BMP280;61204;49.980;8.358;2022-08-18T15:40:19;100140.16;;;32.57
72278;BMP280;61204;49.980;8.358;2022-08-18T15:42:54;100140.28;;;32.32
72278;BMP280;61204;49.980;8.358;2022-08-18T15:45:31;100149.28;;;31.93
72278;BMP280;61204;49.980;8.358;2022-08-18T15:48:03;100144.59;;;31.59
72278;BMP280;61204;49.980;8.358;2022-08-18T15:50:29;100153.16;;;31.32
72278;BMP280;61204;49.980;8.358;2022-08-18T15:53:03;100153.00;;;31.11
72278;BMP280;61204;49.980;8.358;2022-08-18T15:55:32;100159.22;;;31.16
72278;BMP280;61204;49.980;8.358;2022-08-18T15:58:02;100155.97;;;30.78
72278;BMP280;61204;49.980;8.358;2022-08-18T16:00:29;100153.22;;;30.74
72278;BMP280;61204;49.980;8.358;2022-08-18T16:03:03;100158.66;;;30.53
72278;BMP280;61204;49.980;8.358;2022-08-18T16:05:36;100152.00;;;30.36
72278;BMP280;61204;49.980;8.358;2022-08-18T16:08:06;100157.78;;;30.30
72278;BMP280;61204;49.980;8.358;2022-08-18T16:10:35;100144.97;;;30.35
72278;BMP280;61204;49.980;8.358;2022-08-18T16:13:04;100147.06;;;30.36
72278;BMP280;61204;49.980;8.358;2022-08-18T16:15:37;100147.81;;;30.02
72278;BMP280;61204;49.980;8.358;2022-08-18T16:18:06;100150.06;;;29.95
72278;BMP280;61204;49.980;8.358;2022-08-18T16:20:37;100146.97;;;30.08
72278;BMP280;61204;49.980;8.358;2022-08-18T16:23:05;100145.69;;;30.00
72278;BMP280;61204;49.980;8.358;2022-08-18T16:25:32;100147.06;;;30.03
72278;BMP280;61204;49.980;8.358;2022-08-18T16:28:03;100149.50;;;30.22
72278;BMP280;61204;49.980;8.358;2022-08-18T16:30:29;100143.78;;;29.91
72278;BMP280;61204;49.980;8.358;2022-08-18T16:32:59;100143.53;;;30.05
72278;BMP280;61204;49.980;8.358;2022-08-18T16:35:36;100140.28;;;29.90
72278;BMP280;61204;49.980;8.358;2022-08-18T16:38:07;100156.28;;;29.67